Apollo — WDC2576 — position and weather

sailwx.info

Track history (hours):
 
Tides and Currents Weather Stations Pressure Air Temp Water Temp Dewpoint Dewpoint Depression Visibility Wind Speed Wind Dir Waves Ship Positions

Apollo

Owner: Kirby Inland Marine LP, Houston, TX. More information available from US FCC via Universal Licensing System and Coast Guard Vessel Documentation Center.

Last reported at 2018-Feb-20 17:29 UTC. Time now 2018-Feb-20 17:53 UTC.
Position N 29°26' W 094°43'.

Length 114 m; draft 3 m.

Type: . MMSI: 366995180.

Date/timePositionNaut miles runAvg speedWind from/ knotsBaromVisibWave heightAir tempDewpointWater temp
2018-Feb-20 17:29N 29°26' W 094°43'0 0.8
2018-Feb-20 16:55N 29°25' W 094°43'13 4.5
2018-Feb-20 14:02N 29°17' W 094°55'0 0.2
2018-Feb-20 13:58N 29°17' W 094°55'3 5.6
2018-Feb-20 13:30N 29°17' W 094°58'1 2.5
2018-Feb-20 13:00N 29°16' W 094°59'0 0.0
2018-Feb-20 12:24N 29°16' W 094°59'0 0.0
2018-Feb-20 10:27N 29°16' W 094°59'0 0.0
2018-Feb-20 09:25N 29°16' W 094°59'0 0.0
2018-Feb-20 09:00N 29°16' W 094°59'0 0.0
2018-Feb-20 08:17N 29°16' W 094°59'0 0.0
2018-Feb-20 08:00N 29°16' W 094°59'0 0.0
2018-Feb-20 07:27N 29°16' W 094°59'0 0.0
2018-Feb-20 07:00N 29°16' W 094°59'0 0.0
2018-Feb-20 06:30N 29°16' W 094°59'0 0.0
2018-Feb-20 05:28N 29°16' W 094°59'0 0.0
2018-Feb-20 03:44N 29°16' W 094°59'0 0.0
2018-Feb-19 20:34N 29°16' W 094°59'0 0.0
2018-Feb-19 19:51N 29°16' W 094°59'0 0.0
2018-Feb-19 19:30N 29°16' W 094°59'0 0.0
2018-Feb-19 18:06N 29°17' W 094°59'0 0.0
2018-Feb-19 17:55N 29°17' W 094°59'0 0.0
2018-Feb-19 17:23N 29°16' W 094°59'0 0.0
2018-Feb-19 17:00N 29°17' W 094°59'0 0.0
2018-Feb-19 16:30N 29°17' W 094°59'0 0.0
2018-Feb-19 16:00N 29°16' W 094°59'0 0.0
2018-Feb-19 15:12N 29°16' W 094°59'0 0.0
2018-Feb-19 14:55N 29°16' W 094°59'0 0.0
2018-Feb-19 14:30N 29°16' W 094°59'2 4.0
2018-Feb-19 14:00N 29°15' W 095°00'0 0.0
2018-Feb-19 13:29N 29°15' W 095°00'1 2.2
2018-Feb-19 13:00N 29°14' W 095°01'1 2.2
2018-Feb-19 12:27N 29°13' W 095°02'0 0.0
2018-Feb-19 11:58N 29°13' W 095°02'0 0.0
2018-Feb-19 11:28N 29°13' W 095°02'0 0.0
2018-Feb-19 10:57N 29°13' W 095°02'0 0.0
2018-Feb-19 10:23N 29°13' W 095°02'0 0.0
2018-Feb-19 10:00N 29°13' W 095°02'0 0.0
2018-Feb-19 09:29N 29°13' W 095°02'0 0.0
2018-Feb-19 08:58N 29°13' W 095°02'0 0.0
2018-Feb-19 08:25N 29°13' W 095°02'0 0.0
2018-Feb-19 07:57N 29°13' W 095°02'0 0.0
2018-Feb-19 07:30N 29°13' W 095°02'0 0.0
2018-Feb-19 07:00N 29°13' W 095°02'0 0.0
2018-Feb-19 06:30N 29°13' W 095°02'0 0.0
2018-Feb-19 06:00N 29°13' W 095°02'0 0.0
2018-Feb-19 05:27N 29°13' W 095°02'0 0.0
2018-Feb-19 05:00N 29°13' W 095°02'0 0.0
2018-Feb-19 04:29N 29°13' W 095°02'0 0.0
2018-Feb-19 04:00N 29°13' W 095°02'0 0.0
2018-Feb-19 03:28N 29°13' W 095°02'0 0.0
2018-Feb-19 00:49N 29°13' W 095°02'0 0.0
2018-Feb-19 00:29N 29°13' W 095°02'12 2.8
2018-Feb-18 19:59N 29°05' W 095°12'3 2.4
2018-Feb-18 18:55N 29°03' W 095°14'9 4.3
2018-Feb-18 16:53N 28°56' W 095°20'  
2018-Feb-16 06:15N 28°45' W 095°41'0 0.0
2018-Feb-16 05:58N 28°45' W 095°41'0 0.0
2018-Feb-16 05:27N 28°45' W 095°41'0 0.0
2018-Feb-16 04:59N 28°45' W 095°41'0 0.0
2018-Feb-16 04:30N 28°45' W 095°41'0 0.0
2018-Feb-16 03:59N 28°45' W 095°41'0 0.1
2018-Feb-16 03:30N 28°45' W 095°41'0 0.0
2018-Feb-16 02:53N 28°45' W 095°41'0 0.0
2018-Feb-16 02:23N 28°45' W 095°41'0 0.0
2018-Feb-16 01:39N 28°45' W 095°41'0 0.0
2018-Feb-16 00:34N 28°45' W 095°41'0 0.0
2018-Feb-16 00:29N 28°45' W 095°41'0 0.0
2018-Feb-15 23:59N 28°45' W 095°41'0 0.0
2018-Feb-15 23:16N 28°45' W 095°41'0 0.0
2018-Feb-15 22:30N 28°45' W 095°41'0 0.0
2018-Feb-15 21:56N 28°45' W 095°41'3 0.8
2018-Feb-15 17:19N 28°45' W 095°45'5 1.3
2018-Feb-15 13:29N 28°44' W 095°51'0 0.0
2018-Feb-15 12:42N 28°44' W 095°51'0 0.0
2018-Feb-15 12:28N 28°44' W 095°51'0 0.0
2018-Feb-15 10:07N 28°44' W 095°51'0 0.0
2018-Feb-15 08:50N 28°44' W 095°51'0 0.0
2018-Feb-15 08:24N 28°44' W 095°51'0 0.0
2018-Feb-15 07:31N 28°44' W 095°51'0 0.0
2018-Feb-15 07:27N 28°44' W 095°51'0 0.0
2018-Feb-15 06:59N 28°44' W 095°51'0 0.0
2018-Feb-15 06:30N 28°44' W 095°51'0 0.0
2018-Feb-15 05:38N 28°44' W 095°51'0 0.0
2018-Feb-15 05:30N 28°44' W 095°51'0 0.0
2018-Feb-15 04:35N 28°44' W 095°51'0 0.0
2018-Feb-15 04:29N 28°44' W 095°51'58 1.2
2018-Feb-13 05:10N 28°14' W 096°47'1 6.3
2018-Feb-13 04:59N 28°13' W 096°48'3 5.6
2018-Feb-13 04:30N 28°12' W 096°50'3 5.3
2018-Feb-13 04:00N 28°10' W 096°53'2 4.6
2018-Feb-13 03:29N 28°08' W 096°55'1 2.5
2018-Feb-13 02:59N 28°07' W 096°55'0 0.9
2018-Feb-13 02:30N 28°07' W 096°56'2 4.1
2018-Feb-13 02:00N 28°05' W 096°57'3 5.7
2018-Feb-13 01:29N 28°03' W 096°59'3 5.8
2018-Feb-13 01:00N 28°01' W 097°01'3 5.9
2018-Feb-13 00:30N 27°58' W 097°03'3 6.0
2018-Feb-12 23:57N 27°55' W 097°03'3 6.9
2018-Feb-12 23:29N 27°52' W 097°03'3 5.1
2018-Feb-12 22:59N 27°50' W 097°05'2 4.7
2018-Feb-12 22:30N 27°50' W 097°08'3 5.2
2018-Feb-12 22:00N 27°49' W 097°11'3 5.7
2018-Feb-12 21:30N 27°49' W 097°14'4 6.3
2018-Feb-12 20:52N 27°49' W 097°18'3 6.3
2018-Feb-12 20:28N 27°49' W 097°21'3 6.3
2018-Feb-12 19:56N 27°49' W 097°25'  
Track history (hours):
 
Tides and Currents Weather Stations Pressure Air Temp Water Temp Dewpoint Dewpoint Depression Visibility Wind Speed Wind Dir Waves Ship Positions

Apollo

Owner: Kirby Inland Marine LP, Houston, TX. More information available from US FCC via Universal Licensing System and Coast Guard Vessel Documentation Center.

Last reported at 2018-Feb-20 17:29 UTC. Time now 2018-Feb-20 17:53 UTC.
Position N 29°26' W 094°43'.

Length 114 m; draft 3 m.

Type: . MMSI: 366995180.

Date/timePositionNaut miles runAvg speedWind from/ knotsBaromVisibWave heightAir tempDewpointWater temp
2018-Feb-20 17:29N 29°26' W 094°43'0 0.8
2018-Feb-20 16:55N 29°25' W 094°43'13 4.5
2018-Feb-20 14:02N 29°17' W 094°55'0 0.2
2018-Feb-20 13:58N 29°17' W 094°55'3 5.6
2018-Feb-20 13:30N 29°17' W 094°58'1 2.5
2018-Feb-20 13:00N 29°16' W 094°59'0 0.0
2018-Feb-20 12:24N 29°16' W 094°59'0 0.0
2018-Feb-20 10:27N 29°16' W 094°59'0 0.0
2018-Feb-20 09:25N 29°16' W 094°59'0 0.0
2018-Feb-20 09:00N 29°16' W 094°59'0 0.0
2018-Feb-20 08:17N 29°16' W 094°59'0 0.0
2018-Feb-20 08:00N 29°16' W 094°59'0 0.0
2018-Feb-20 07:27N 29°16' W 094°59'0 0.0
2018-Feb-20 07:00N 29°16' W 094°59'0 0.0
2018-Feb-20 06:30N 29°16' W 094°59'0 0.0
2018-Feb-20 05:28N 29°16' W 094°59'0 0.0
2018-Feb-20 03:44N 29°16' W 094°59'0 0.0
2018-Feb-19 20:34N 29°16' W 094°59'0 0.0
2018-Feb-19 19:51N 29°16' W 094°59'0 0.0
2018-Feb-19 19:30N 29°16' W 094°59'0 0.0
2018-Feb-19 18:06N 29°17' W 094°59'0 0.0
2018-Feb-19 17:55N 29°17' W 094°59'0 0.0
2018-Feb-19 17:23N 29°16' W 094°59'0 0.0
2018-Feb-19 17:00N 29°17' W 094°59'0 0.0
2018-Feb-19 16:30N 29°17' W 094°59'0 0.0
2018-Feb-19 16:00N 29°16' W 094°59'0 0.0
2018-Feb-19 15:12N 29°16' W 094°59'0 0.0
2018-Feb-19 14:55N 29°16' W 094°59'0 0.0
2018-Feb-19 14:30N 29°16' W 094°59'2 4.0
2018-Feb-19 14:00N 29°15' W 095°00'0 0.0
2018-Feb-19 13:29N 29°15' W 095°00'1 2.2
2018-Feb-19 13:00N 29°14' W 095°01'1 2.2
2018-Feb-19 12:27N 29°13' W 095°02'0 0.0
2018-Feb-19 11:58N 29°13' W 095°02'0 0.0
2018-Feb-19 11:28N 29°13' W 095°02'0 0.0
2018-Feb-19 10:57N 29°13' W 095°02'0 0.0
2018-Feb-19 10:23N 29°13' W 095°02'0 0.0
2018-Feb-19 10:00N 29°13' W 095°02'0 0.0
2018-Feb-19 09:29N 29°13' W 095°02'0 0.0
2018-Feb-19 08:58N 29°13' W 095°02'0 0.0
2018-Feb-19 08:25N 29°13' W 095°02'0 0.0
2018-Feb-19 07:57N 29°13' W 095°02'0 0.0
2018-Feb-19 07:30N 29°13' W 095°02'0 0.0
2018-Feb-19 07:00N 29°13' W 095°02'0 0.0
2018-Feb-19 06:30N 29°13' W 095°02'0 0.0
2018-Feb-19 06:00N 29°13' W 095°02'0 0.0
2018-Feb-19 05:27N 29°13' W 095°02'0 0.0
2018-Feb-19 05:00N 29°13' W 095°02'0 0.0
2018-Feb-19 04:29N 29°13' W 095°02'0 0.0
2018-Feb-19 04:00N 29°13' W 095°02'0 0.0
2018-Feb-19 03:28N 29°13' W 095°02'0 0.0
2018-Feb-19 00:49N 29°13' W 095°02'0 0.0
2018-Feb-19 00:29N 29°13' W 095°02'12 2.8
2018-Feb-18 19:59N 29°05' W 095°12'3 2.4
2018-Feb-18 18:55N 29°03' W 095°14'9 4.3
2018-Feb-18 16:53N 28°56' W 095°20'  
2018-Feb-16 06:15N 28°45' W 095°41'0 0.0
2018-Feb-16 05:58N 28°45' W 095°41'0 0.0
2018-Feb-16 05:27N 28°45' W 095°41'0 0.0
2018-Feb-16 04:59N 28°45' W 095°41'0 0.0
2018-Feb-16 04:30N 28°45' W 095°41'0 0.0
2018-Feb-16 03:59N 28°45' W 095°41'0 0.1
2018-Feb-16 03:30N 28°45' W 095°41'0 0.0
2018-Feb-16 02:53N 28°45' W 095°41'0 0.0
2018-Feb-16 02:23N 28°45' W 095°41'0 0.0
2018-Feb-16 01:39N 28°45' W 095°41'0 0.0
2018-Feb-16 00:34N 28°45' W 095°41'0 0.0
2018-Feb-16 00:29N 28°45' W 095°41'0 0.0
2018-Feb-15 23:59N 28°45' W 095°41'0 0.0
2018-Feb-15 23:16N 28°45' W 095°41'0 0.0
2018-Feb-15 22:30N 28°45' W 095°41'0 0.0
2018-Feb-15 21:56N 28°45' W 095°41'3 0.8
2018-Feb-15 17:19N 28°45' W 095°45'5 1.3
2018-Feb-15 13:29N 28°44' W 095°51'0 0.0
2018-Feb-15 12:42N 28°44' W 095°51'0 0.0
2018-Feb-15 12:28N 28°44' W 095°51'0 0.0
2018-Feb-15 10:07N 28°44' W 095°51'0 0.0
2018-Feb-15 08:50N 28°44' W 095°51'0 0.0
2018-Feb-15 08:24N 28°44' W 095°51'0 0.0
2018-Feb-15 07:31N 28°44' W 095°51'0 0.0
2018-Feb-15 07:27N 28°44' W 095°51'0 0.0
2018-Feb-15 06:59N 28°44' W 095°51'0 0.0
2018-Feb-15 06:30N 28°44' W 095°51'0 0.0
2018-Feb-15 05:38N 28°44' W 095°51'0 0.0
2018-Feb-15 05:30N 28°44' W 095°51'0 0.0
2018-Feb-15 04:35N 28°44' W 095°51'0 0.0
2018-Feb-15 04:29N 28°44' W 095°51'58 1.2
2018-Feb-13 05:10N 28°14' W 096°47'1 6.3
2018-Feb-13 04:59N 28°13' W 096°48'3 5.6
2018-Feb-13 04:30N 28°12' W 096°50'3 5.3
2018-Feb-13 04:00N 28°10' W 096°53'2 4.6
2018-Feb-13 03:29N 28°08' W 096°55'1 2.5
2018-Feb-13 02:59N 28°07' W 096°55'0 0.9
2018-Feb-13 02:30N 28°07' W 096°56'2 4.1
2018-Feb-13 02:00N 28°05' W 096°57'3 5.7
2018-Feb-13 01:29N 28°03' W 096°59'3 5.8
2018-Feb-13 01:00N 28°01' W 097°01'3 5.9
2018-Feb-13 00:30N 27°58' W 097°03'3 6.0
2018-Feb-12 23:57N 27°55' W 097°03'3 6.9
2018-Feb-12 23:29N 27°52' W 097°03'3 5.1
2018-Feb-12 22:59N 27°50' W 097°05'2 4.7
2018-Feb-12 22:30N 27°50' W 097°08'3 5.2
2018-Feb-12 22:00N 27°49' W 097°11'3 5.7
2018-Feb-12 21:30N 27°49' W 097°14'4 6.3
2018-Feb-12 20:52N 27°49' W 097°18'3 6.3
2018-Feb-12 20:28N 27°49' W 097°21'3 6.3
2018-Feb-12 19:56N 27°49' W 097°25'  

Dump ship's entire track history